• Join FlightAware (Why Join?)
  • Login
  • US Flag 
04:25AM EDT


 

Airport Tracker/Info


-or-


 

Live Flight TrackerFlight Track Log ✈ UAL3787 ✈ 20-May-2013 ✈ KMCI - KORD

Flight Track Log - Related Links

Times and Time Zones

All times are in EDT time to prevent confusion due to time zone crossing. See the UAL3787 flight status page for this flight to view local times or setup timezone preferences in your user account.

Time Position Orientation Groundspeed Altitude Reporting Facility
EDT Latitude Longitude Course Direction KTS MPH feet Rate Location/Type
12:15PM 39.3000 -94.7333 45° Northeast 165 190 1,600  Level Kansas City TRACON
12:15PM 39.2833 -94.7333 180° South 157 181 2,200 2,220 Climbing Kansas City TRACON
12:16PM 39.2333 -94.7167 166° South 203 234 4,500 2,100 Climbing Kansas City TRACON
12:17PM 39.2119 -94.7197 186° South 198 228 5,300 2,220 Climbing Kansas City Center
12:18PM 39.1947 -94.6439 106° East 262 302 7,800 2,220 Climbing Kansas City Center
12:19PM 39.5553 -94.3765 45° Northeast  Level FlightAware Approximate
12:19PM 39.2550 -94.5794 40° Northeast 302 348 10,000  Level Kansas City Center
12:20PM 39.6290 -94.2819 45° Northeast  Level FlightAware Approximate
12:20PM 39.3453 -94.5014 34° Northeast 357 411 11,800  Level Kansas City Center
12:21PM 39.4289 -94.4289 34° Northeast 378 435 13,700 1,980 Climbing Kansas City Center
12:22PM 39.5333 -94.3356 35° Northeast 408 470 15,900 2,220 Climbing Kansas City Center
12:23PM 39.6261 -94.2533 34° Northeast 421 484 18,300 2,160 Climbing Kansas City Center
12:24PM 39.7372 -94.1553 34° Northeast 428 493 20,400 1,860 Climbing Kansas City Center
12:25PM 39.8378 -94.0686 33° Northeast 433 498 22,200 1,500 Climbing Kansas City Center
12:26PM 39.9453 -93.9858 31° Northeast 447 514 23,500 1,200 Climbing Kansas City Center
12:27PM 40.0589 -93.9017 30° Northeast 467 537 24,800 1,080 Climbing Kansas City Center
12:28PM 40.1739 -93.8197 29° Northeast 472 543 25,800 1,020 Climbing Kansas City Center
12:29PM 40.2325 -93.6711 63° Northeast 467 537 26,900 540 Climbing Kansas City Center
12:30PM 40.2147 -93.5100 98° East 450 518 27,000  Climbing Kansas City Center
12:31PM 40.1889 -93.3139 100° East 459 528 27,000  Level Kansas City Center
12:32PM 40.1650 -93.1528 101° East 458 527 27,000  Level Kansas City Center
12:33PM 40.1358 -92.9967 104° East 468 539 27,000  Level Kansas City Center
12:34PM 40.1003 -92.8128 104° East 467 537 27,000  Level Kansas City Center
12:35PM 40.0931 -92.6481 93° East 494 568 27,000 540 Level Kansas City Center
12:36PM 40.1614 -92.4600 65° Northeast 516 594 28,200 1,200 Climbing Kansas City Center
12:37PM 40.2206 -92.3017 64° Northeast 508 585 29,500 1,080 Climbing Kansas City Center
12:38PM 40.2792 -92.1403 65° Northeast 502 578 30,500 960 Climbing Kansas City Center
12:39PM 40.3375 -91.9764 65° Northeast 503 579 31,500 1,020 Climbing Kansas City Center
12:40PM 40.4078 -91.7786 65° Northeast 503 579 32,700 720 Climbing Kansas City Center
12:41PM 40.4658 -91.6161 65° Northeast 499 574 33,000 120 Climbing Kansas City Center
12:42PM 40.5117 -91.4892 65° Northeast 488 562 33,000  Level Chicago Center
12:43PM 40.5669 -91.3336 65° Northeast 476 548 33,000  Level Chicago Center
12:44PM 40.6294 -91.1533 65° Northeast 476 548 33,000  Level Chicago Center
12:45PM 40.6844 -90.9933 66° East 479 551 33,000 -600 Level Chicago Center
12:46PM 40.7419 -90.8286 65° Northeast 489 563 31,800 -1,260 Descending Chicago Center
12:47PM 40.7989 -90.6611 66° East 499 574 30,400 -1,380 Descending Chicago Center
12:49PM 40.8569 -90.4919 66° East 502 578 29,000 -1,500 Descending Chicago Center
12:50PM 40.9272 -90.2875 65° Northeast 503 579 27,300 -1,500 Descending Chicago Center
12:51PM 40.9828 -90.1264 65° Northeast 500 575 25,900 -1,440 Descending Chicago Center
12:52PM 41.0400 -89.9542 66° East 484 557 24,400 -960 Descending Chicago Center
12:53PM 41.0936 -89.7906 66° East 480 552 24,000 -240 Descending Chicago Center
12:54PM 41.1472 -89.6281 66° East 476 548 24,000 -180 Level Chicago Center
12:55PM 41.2067 -89.4733 63° Northeast 471 542 23,700 -1,440 Descending Chicago Center
12:56PM 41.2697 -89.3211 61° Northeast 468 539 21,100 -2,580 Descending Chicago Center
12:57PM 41.3322 -89.1608 63° Northeast 452 520 18,400 -2,520 Descending Chicago Center
12:58PM 41.3883 -89.0183 62° Northeast 439 505 15,900 -2,400 Descending Chicago Center
12:59PM 41.4436 -88.8856 61° Northeast 420 483 13,500 -1,560 Descending Chicago Center
01:01PM 41.4940 -88.7197 68° East  Level FlightAware Approximate
01:01PM 41.5544 -88.6019 68° East 375 432 11,100  Level Chicago Center
01:02PM 41.5986 -88.4892 62° Northeast 348 400 10,800 -840 Descending Chicago Center
01:03PM 41.6542 -88.3908 53° Northeast 336 387 9,400 -1,020 Descending Chicago Center
01:04PM 41.7039 -88.3036 53° Northeast 301 346 8,700 -600 Descending Chicago Center
01:05PM 41.7469 -88.2311 51° Northeast 253 291 8,200 -780 Descending Chicago Center
01:06PM 41.7928 -88.1514 52° Northeast 229 264 7,100 -540 Descending Chicago Center
01:07PM 41.8364 -88.0897 46° Northeast 231 266 7,100  Level Chicago Center
01:08PM 41.8992 -88.0858 North 227 261 7,100  Level Chicago Center
01:09PM 41.9597 -88.0794 North 222 255 7,100 -120 Level Chicago Center
01:10PM 42.0089 -88.1097 335° Northwest 207 238 6,900 -720 Descending Chicago Center
01:11PM 42.0494 -88.1556 320° Northwest 193 222 5,700 -1,380 Descending Chicago Center
01:12PM 42.0928 -88.2086 318° Northwest 181 208 4,100 -960 Descending Chicago Center
01:13PM 42.1403 -88.1739 28° Northeast 218 251 3,800 -540 Descending Chicago Center
01:14PM 42.1447 -88.1106 85° East 219 252 3,000 -720 Descending Chicago Center
01:15PM 42.1167 -88.0667 131° Southeast 178 205 2,500 -600 Descending Chicago TRACON